createdAt,value
2019-03-17T00:00:42.786Z,63.16
2019-03-17T00:03:11.688Z,63.18
2019-03-17T00:05:40.798Z,63.21
2019-03-17T00:08:09.985Z,63.26
2019-03-17T00:10:39.058Z,63.29
2019-03-17T00:13:08.070Z,63.32
2019-03-17T00:15:37.081Z,63.35
2019-03-17T00:18:06.104Z,63.32
2019-03-17T00:20:35.100Z,63.32
2019-03-17T00:23:04.158Z,63.29
2019-03-17T00:25:33.126Z,63.33
2019-03-17T00:28:02.290Z,63.19
2019-03-17T00:30:31.176Z,63.23
2019-03-17T00:33:00.109Z,63.26
2019-03-17T00:35:29.077Z,63.32
2019-03-17T00:37:58.256Z,63.34
2019-03-17T00:40:27.167Z,63.37
2019-03-17T00:42:56.293Z,63.40
2019-03-17T00:45:25.241Z,63.39
2019-03-17T00:47:54.319Z,63.40
2019-03-17T00:50:23.264Z,63.43
2019-03-17T00:52:52.328Z,63.38
2019-03-17T00:55:21.210Z,63.37
2019-03-17T00:57:49.995Z,63.40
2019-03-17T01:00:18.978Z,63.28
2019-03-17T01:02:47.782Z,63.34
2019-03-17T01:05:16.793Z,63.37
2019-03-17T01:07:45.891Z,63.36
2019-03-17T01:10:35.534Z,63.35
2019-03-17T01:13:04.439Z,63.35
2019-03-17T01:15:33.455Z,63.37
2019-03-17T01:18:02.494Z,63.36
2019-03-17T01:20:31.562Z,63.38
2019-03-17T01:23:00.586Z,63.31
2019-03-17T01:25:29.512Z,63.30
2019-03-17T01:27:58.503Z,63.34
2019-03-17T01:30:28.884Z,63.38
2019-03-17T01:32:57.055Z,63.34
2019-03-17T01:35:25.974Z,63.27
2019-03-17T01:37:54.790Z,63.32
2019-03-17T01:40:23.605Z,63.33
2019-03-17T01:42:52.565Z,63.29
2019-03-17T01:45:21.506Z,63.29
2019-03-17T01:47:50.341Z,63.29
2019-03-17T01:50:19.532Z,63.22
2019-03-17T01:52:48.338Z,63.30
2019-03-17T01:55:17.340Z,63.26
2019-03-17T01:57:46.312Z,63.12
2019-03-17T02:00:15.159Z,63.16
2019-03-17T02:02:44.074Z,63.17
2019-03-17T02:05:21.834Z,63.11
2019-03-17T02:07:43.719Z,63.17
2019-03-17T02:10:12.719Z,63.11
2019-03-17T02:12:41.721Z,62.95
2019-03-17T02:15:10.734Z,62.94
2019-03-17T02:17:58.773Z,62.99
2019-03-17T02:20:27.779Z,63.05
2019-03-17T02:22:56.860Z,63.12
2019-03-17T02:25:25.721Z,63.16
2019-03-17T02:27:54.519Z,63.13
2019-03-17T02:30:23.419Z,63.09
2019-03-17T02:32:52.389Z,63.06
2019-03-17T02:35:37.251Z,63.08
2019-03-17T02:37:51.945Z,63.07
2019-03-17T02:40:20.851Z,63.06
2019-03-17T02:42:49.840Z,62.98
2019-03-17T02:45:18.861Z,62.97
2019-03-17T02:47:47.967Z,63.03
2019-03-17T02:50:35.925Z,62.91
2019-03-17T02:53:04.928Z,62.96
2019-03-17T02:55:33.928Z,63.06
2019-03-17T02:58:02.882Z,63.07
2019-03-17T03:00:32.055Z,63.07
2019-03-17T03:03:01.119Z,63.04
2019-03-17T03:05:30.055Z,63.13
2019-03-17T03:08:00.518Z,63.13
2019-03-17T03:10:31.968Z,62.98
2019-03-17T03:13:00.536Z,62.86
2019-03-17T03:15:30.144Z,62.98
2019-03-17T03:17:59.065Z,62.92
2019-03-17T03:20:27.913Z,62.97
2019-03-17T03:22:56.837Z,63.04
2019-03-17T03:25:25.841Z,63.07
2019-03-17T03:27:54.875Z,63.06
2019-03-17T03:30:24.141Z,62.89
2019-03-17T03:32:53.221Z,62.93
2019-03-17T03:35:22.249Z,63.02
2019-03-17T03:37:51.130Z,63.04
2019-03-17T03:40:19.935Z,62.86
2019-03-17T03:42:48.951Z,62.87
2019-03-17T03:45:17.829Z,62.87
2019-03-17T03:47:46.864Z,62.91
2019-03-17T03:50:16.072Z,62.91
2019-03-17T03:52:44.898Z,63.00
2019-03-17T03:55:14.004Z,62.94
2019-03-17T03:57:42.769Z,62.98
2019-03-17T04:00:11.823Z,62.98
2019-03-17T04:02:40.716Z,62.90
2019-03-17T04:05:09.631Z,62.96
2019-03-17T04:07:38.445Z,62.86
2019-03-17T04:10:07.519Z,62.85
2019-03-17T04:12:36.549Z,62.84
2019-03-17T04:15:05.698Z,62.90
2019-03-17T04:17:34.518Z,62.90
2019-03-17T04:20:03.533Z,62.94
2019-03-17T04:22:32.493Z,62.76
2019-03-17T04:25:01.537Z,62.79
2019-03-17T04:27:30.511Z,62.86
2019-03-17T04:29:59.498Z,62.97
2019-03-17T04:35:16.234Z,63.01
2019-03-17T04:37:45.359Z,63.02
2019-03-17T04:40:14.583Z,62.89
2019-03-17T04:42:43.503Z,62.76
2019-03-17T04:45:12.298Z,62.60
2019-03-17T04:47:41.395Z,62.67
2019-03-17T04:50:29.651Z,62.66
2019-03-17T04:52:58.657Z,62.68
2019-03-17T04:55:27.679Z,62.62
2019-03-17T04:57:56.660Z,62.76
2019-03-17T05:00:25.664Z,62.71
2019-03-17T05:02:54.740Z,62.61
2019-03-17T05:05:23.735Z,62.62
2019-03-17T05:07:52.728Z,62.76
2019-03-17T05:10:22.858Z,62.71
2019-03-17T05:12:51.186Z,62.74
2019-03-17T05:15:20.063Z,62.67
2019-03-17T05:17:48.845Z,62.75
2019-03-17T05:20:17.812Z,62.59
2019-03-17T05:22:46.893Z,62.66
2019-03-17T05:25:15.851Z,62.58
2019-03-17T05:27:44.868Z,62.70
2019-03-17T05:30:13.835Z,62.75
2019-03-17T05:32:42.855Z,62.81
2019-03-17T05:35:11.934Z,62.82
2019-03-17T05:37:40.813Z,62.75
2019-03-17T05:40:10.296Z,62.81
2019-03-17T05:42:40.780Z,62.90
2019-03-17T05:45:10.171Z,62.93
2019-03-17T05:47:39.010Z,62.96
2019-03-17T05:50:27.071Z,62.98
2019-03-17T05:52:56.030Z,63.01
2019-03-17T05:55:24.981Z,62.85
2019-03-17T06:00:42.040Z,62.77
2019-03-17T06:03:30.072Z,62.82
2019-03-17T06:05:59.169Z,62.63
2019-03-17T06:08:28.317Z,62.76
2019-03-17T06:10:57.208Z,62.74
2019-03-17T06:13:26.121Z,62.74
2019-03-17T06:16:14.174Z,62.71
2019-03-17T06:18:43.060Z,62.72
2019-03-17T06:21:12.218Z,62.79
2019-03-17T06:23:41.166Z,62.84
2019-03-17T06:26:10.203Z,62.89
2019-03-17T06:28:58.238Z,62.85
2019-03-17T06:31:27.195Z,62.82
2019-03-17T06:33:56.261Z,62.87
2019-03-17T06:36:25.302Z,62.93
2019-03-17T06:38:54.332Z,62.88
2019-03-17T06:41:23.326Z,62.78
2019-03-17T06:43:52.269Z,62.68
2019-03-17T06:46:21.355Z,62.66
2019-03-17T06:48:50.358Z,62.71
2019-03-17T06:51:19.327Z,62.77
2019-03-17T06:53:56.189Z,62.79
2019-03-17T06:56:19.130Z,62.84
2019-03-17T06:58:48.140Z,62.89
2019-03-17T07:01:17.153Z,62.93
2019-03-17T07:03:46.146Z,62.85
2019-03-17T07:06:15.254Z,62.91
2019-03-17T07:08:44.110Z,62.99
2019-03-17T07:11:13.312Z,62.99
2019-03-17T07:13:42.527Z,63.02
2019-03-17T07:16:11.379Z,63.01
2019-03-17T07:18:59.279Z,63.03
2019-03-17T07:21:28.314Z,63.05
2019-03-17T07:23:57.209Z,63.08
2019-03-17T07:26:26.106Z,63.08
2019-03-17T07:28:55.014Z,63.09
2019-03-17T07:31:24.036Z,63.10
2019-03-17T07:33:52.960Z,63.10
2019-03-17T07:36:21.984Z,63.15
2019-03-17T07:38:51.116Z,63.17
2019-03-17T07:41:20.127Z,63.08
2019-03-17T07:43:49.179Z,63.10
2019-03-17T07:46:18.160Z,63.17
2019-03-17T07:48:47.117Z,63.24
2019-03-17T07:51:16.127Z,63.28
2019-03-17T07:53:45.165Z,63.29
2019-03-17T07:56:14.194Z,63.26
2019-03-17T07:58:43.161Z,63.27
2019-03-17T08:01:12.257Z,63.27
2019-03-17T08:03:49.085Z,63.29
2019-03-17T08:06:18.116Z,63.25
2019-03-17T08:08:47.261Z,63.29
2019-03-17T08:11:16.241Z,63.29
2019-03-17T08:13:45.176Z,63.34
2019-03-17T08:16:14.183Z,63.40
2019-03-17T08:18:43.314Z,63.42
2019-03-17T08:21:12.345Z,63.34
2019-03-17T08:23:41.522Z,63.38
2019-03-17T08:26:10.285Z,63.43
2019-03-17T08:28:39.242Z,63.47
2019-03-17T08:31:08.270Z,63.45
2019-03-17T08:33:37.143Z,63.44
2019-03-17T08:36:06.066Z,63.42
2019-03-17T08:38:34.994Z,63.46
2019-03-17T08:41:03.874Z,63.48
2019-03-17T08:43:32.945Z,63.50
2019-03-17T08:46:02.008Z,63.53
2019-03-17T08:48:31.114Z,63.53
2019-03-17T08:51:00.022Z,63.54
2019-03-17T08:53:29.041Z,63.55
2019-03-17T08:55:58.028Z,63.51
2019-03-17T08:58:27.104Z,63.48
2019-03-17T09:00:56.048Z,63.50
2019-03-17T09:03:25.090Z,63.53
2019-03-17T09:05:54.125Z,63.53
2019-03-17T09:08:34.408Z,63.58
2019-03-17T09:10:53.699Z,63.59
2019-03-17T09:13:22.547Z,63.63
2019-03-17T09:15:51.464Z,63.66
2019-03-17T09:18:20.443Z,63.68
2019-03-17T09:20:49.274Z,63.70
2019-03-17T09:23:18.141Z,63.71
2019-03-17T09:25:47.115Z,63.71
2019-03-17T09:28:16.261Z,63.71
2019-03-17T09:30:45.228Z,63.75
2019-03-17T09:33:14.157Z,63.81
2019-03-17T09:35:42.948Z,63.84
2019-03-17T09:38:11.989Z,63.84
2019-03-17T09:40:41.138Z,63.84
2019-03-17T09:43:10.129Z,63.79
2019-03-17T09:45:39.015Z,63.71
2019-03-17T09:48:08.353Z,63.65
2019-03-17T09:50:37.387Z,63.58
2019-03-17T09:53:06.394Z,63.56
2019-03-17T09:55:35.436Z,63.57
2019-03-17T09:58:04.413Z,63.30
2019-03-17T10:00:33.437Z,63.38
2019-03-17T10:03:02.466Z,63.38
2019-03-17T10:05:31.426Z,63.39
2019-03-17T10:08:00.585Z,63.39
2019-03-17T10:10:29.926Z,63.37
2019-03-17T10:12:58.974Z,63.37
2019-03-17T10:15:27.951Z,63.37
2019-03-17T10:17:56.988Z,63.36
2019-03-17T10:20:25.865Z,63.34
2019-03-17T10:22:54.974Z,63.38
2019-03-17T10:25:24.101Z,63.41
2019-03-17T10:27:52.945Z,63.40
2019-03-17T10:30:22.002Z,63.37
2019-03-17T10:33:11.638Z,63.34
2019-03-17T10:35:40.497Z,63.30
2019-03-17T10:38:09.289Z,63.25
2019-03-17T10:40:38.310Z,63.26
2019-03-17T10:43:07.327Z,63.22
2019-03-17T10:45:36.210Z,63.21
2019-03-17T10:48:05.063Z,63.14
2019-03-17T10:50:33.926Z,63.09
2019-03-17T10:53:02.769Z,62.99
2019-03-17T10:55:31.703Z,62.89
2019-03-17T10:58:00.690Z,62.80
2019-03-17T11:00:29.540Z,62.76
2019-03-17T11:02:58.799Z,62.71
2019-03-17T11:05:27.786Z,62.68
2019-03-17T11:07:56.828Z,62.62
2019-03-17T11:10:25.816Z,62.59
2019-03-17T11:12:54.823Z,62.51
2019-03-17T11:15:23.843Z,62.47
2019-03-17T11:17:52.867Z,62.44
2019-03-17T11:20:21.905Z,62.46
2019-03-17T11:22:50.853Z,62.44
2019-03-17T11:25:19.885Z,62.39
2019-03-17T11:27:48.884Z,62.40
2019-03-17T11:30:17.896Z,62.36
2019-03-17T11:32:46.862Z,62.33
2019-03-17T11:35:15.903Z,62.33
2019-03-17T11:37:44.975Z,62.36
2019-03-17T11:40:14.093Z,62.33
2019-03-17T11:42:44.669Z,62.31
2019-03-17T11:45:13.906Z,62.31
2019-03-17T11:47:42.977Z,62.31
2019-03-17T11:50:12.802Z,62.31
2019-03-17T11:52:41.711Z,62.34
2019-03-17T11:55:10.990Z,62.34
2019-03-17T11:57:39.979Z,62.31
2019-03-17T12:00:10.986Z,62.34
2019-03-17T12:02:39.789Z,62.35
2019-03-17T12:05:09.229Z,62.33
2019-03-17T12:07:38.233Z,62.32
2019-03-17T12:10:08.472Z,62.32
2019-03-17T12:12:37.613Z,62.33
2019-03-17T12:15:08.555Z,62.34
2019-03-17T12:17:37.573Z,62.39
2019-03-17T12:20:07.245Z,62.42
2019-03-17T12:22:36.186Z,62.49
2019-03-17T12:25:05.242Z,62.48
2019-03-17T12:27:34.229Z,62.38
2019-03-17T12:30:03.373Z,62.39
2019-03-17T12:32:32.390Z,62.49
2019-03-17T12:35:01.291Z,62.54
2019-03-17T12:37:30.295Z,62.45
2019-03-17T12:40:02.895Z,62.40
2019-03-17T12:42:30.020Z,62.42
2019-03-17T12:44:59.074Z,62.46
2019-03-17T12:47:28.049Z,62.50
2019-03-17T12:49:56.899Z,62.58
2019-03-17T12:52:25.792Z,62.50
2019-03-17T12:54:54.913Z,62.41
2019-03-17T12:57:23.819Z,62.36
2019-03-17T12:59:52.838Z,62.33
2019-03-17T13:02:21.791Z,62.28
2019-03-17T13:04:50.818Z,62.28
2019-03-17T13:07:19.851Z,62.25
2019-03-17T13:09:48.955Z,62.20
2019-03-17T13:12:17.944Z,62.14
2019-03-17T13:15:07.503Z,62.02
2019-03-17T13:17:36.426Z,61.88
2019-03-17T13:20:06.443Z,61.65
2019-03-17T13:22:35.681Z,61.56
2019-03-17T13:25:04.620Z,61.52
2019-03-17T13:27:33.499Z,61.46
2019-03-17T13:30:02.375Z,61.43
2019-03-17T13:32:31.304Z,61.40
2019-03-17T13:35:00.395Z,61.23
2019-03-17T13:37:48.412Z,61.12
2019-03-17T13:40:28.416Z,61.00
2019-03-17T13:42:48.137Z,61.01
2019-03-17T13:45:17.098Z,61.09
2019-03-17T13:47:46.108Z,61.17
2019-03-17T13:50:15.459Z,61.18
2019-03-17T13:52:44.535Z,61.10
2019-03-17T13:55:13.510Z,61.02
2019-03-17T13:57:43.217Z,60.85
2019-03-17T14:00:14.238Z,60.96
2019-03-17T14:02:43.192Z,60.95
2019-03-17T14:05:12.022Z,61.14
2019-03-17T14:07:40.907Z,61.30
2019-03-17T14:10:14.357Z,61.29
2019-03-17T14:12:43.846Z,61.20
2019-03-17T14:15:13.750Z,61.25
2019-03-17T14:17:42.552Z,61.31
2019-03-17T14:20:13.634Z,61.23
2019-03-17T14:22:42.846Z,61.16
2019-03-17T14:25:14.931Z,60.97
2019-03-17T14:27:43.940Z,60.76
2019-03-17T14:30:14.318Z,60.72
2019-03-17T14:32:42.382Z,60.67
2019-03-17T14:35:11.290Z,60.59
2019-03-17T14:37:40.252Z,60.51
2019-03-17T14:40:10.327Z,60.50
2019-03-17T14:42:39.468Z,60.45
2019-03-17T14:45:09.141Z,60.42
2019-03-17T14:47:38.114Z,60.42
2019-03-17T14:50:08.959Z,60.33
2019-03-17T14:52:37.869Z,60.37
2019-03-17T14:55:07.064Z,60.36
2019-03-17T14:57:36.173Z,60.38
2019-03-17T15:00:06.559Z,60.43
2019-03-17T15:02:34.689Z,60.29
2019-03-17T15:05:03.982Z,60.27
2019-03-17T15:07:33.289Z,60.18
2019-03-17T15:10:02.193Z,60.15
2019-03-17T15:12:31.165Z,60.09
2019-03-17T15:15:00.176Z,60.18
2019-03-17T15:17:29.540Z,60.14
2019-03-17T15:19:58.662Z,60.08
2019-03-17T15:22:30.381Z,60.00
2019-03-17T15:24:58.260Z,59.84
2019-03-17T15:27:27.196Z,59.72
2019-03-17T15:29:56.215Z,59.61
2019-03-17T15:32:25.340Z,59.47
2019-03-17T15:34:54.259Z,59.21
2019-03-17T15:37:23.203Z,59.04
2019-03-17T15:39:52.076Z,58.85
2019-03-17T15:42:40.244Z,58.79
2019-03-17T15:45:11.347Z,58.79
2019-03-17T15:47:40.420Z,58.66
2019-03-17T15:50:10.616Z,58.65
2019-03-17T15:52:39.489Z,58.51
2019-03-17T15:55:09.405Z,58.33
2019-03-17T15:57:38.473Z,58.17
2019-03-17T16:00:10.404Z,58.03
2019-03-17T16:02:39.529Z,57.95
2019-03-17T16:05:08.481Z,57.84
2019-03-17T16:07:42.074Z,57.71
2019-03-17T16:10:28.171Z,57.61
2019-03-17T16:12:57.169Z,57.51
2019-03-17T16:15:26.175Z,57.41
2019-03-17T16:17:54.951Z,57.25
2019-03-17T16:20:24.079Z,57.24
2019-03-17T16:22:53.061Z,57.43
2019-03-17T16:25:21.953Z,57.64
2019-03-17T16:27:50.818Z,57.79
2019-03-17T16:30:21.480Z,58.02
2019-03-17T16:32:50.280Z,58.19
2019-03-17T16:35:19.381Z,58.35
2019-03-17T16:37:48.598Z,58.47
2019-03-17T16:40:39.675Z,58.58
2019-03-17T16:43:08.635Z,58.71
2019-03-17T16:45:37.576Z,58.87
2019-03-17T16:48:06.487Z,59.14
2019-03-17T16:50:35.397Z,59.29
2019-03-17T16:53:04.634Z,59.41
2019-03-17T16:55:34.971Z,59.51
2019-03-17T17:00:52.815Z,59.74
2019-03-17T17:03:21.842Z,59.86
2019-03-17T17:05:50.717Z,59.88
2019-03-17T17:08:19.511Z,60.05
2019-03-17T17:10:50.520Z,60.12
2019-03-17T17:13:39.907Z,60.23
2019-03-17T17:16:08.842Z,60.28
2019-03-17T17:18:37.854Z,60.37
2019-03-17T17:21:06.903Z,60.48
2019-03-17T17:23:36.010Z,60.57
2019-03-17T17:26:05.018Z,60.64
2019-03-17T17:28:33.987Z,60.71
2019-03-17T17:31:02.939Z,60.78
2019-03-17T17:33:52.630Z,60.84
2019-03-17T17:36:21.735Z,60.93
2019-03-17T17:38:50.994Z,60.97
2019-03-17T17:41:20.019Z,61.08
2019-03-17T17:43:48.965Z,61.11
2019-03-17T17:46:18.049Z,61.15
2019-03-17T17:48:46.908Z,61.22
2019-03-17T17:51:15.706Z,61.29
2019-03-17T17:53:44.872Z,61.29
2019-03-17T17:56:13.740Z,61.30
2019-03-17T17:58:42.755Z,61.05
2019-03-17T18:01:11.652Z,60.94
2019-03-17T18:03:51.135Z,60.92
2019-03-17T18:06:11.214Z,61.03
2019-03-17T18:08:40.045Z,61.15
2019-03-17T18:11:09.199Z,61.16
2019-03-17T18:13:38.212Z,61.18
2019-03-17T18:16:07.172Z,61.20
2019-03-17T18:18:36.173Z,61.21
2019-03-17T18:23:40.297Z,61.46
2019-03-17T18:26:09.294Z,61.46
2019-03-17T18:28:38.239Z,61.49
2019-03-17T18:31:07.273Z,61.61
2019-03-17T18:33:36.278Z,61.60
2019-03-17T18:36:05.372Z,61.71
2019-03-17T18:38:34.373Z,61.73
2019-03-17T18:41:03.506Z,61.74
2019-03-17T18:43:32.339Z,61.73
2019-03-17T18:46:01.218Z,61.74
2019-03-17T18:48:30.007Z,61.76
2019-03-17T18:50:59.060Z,61.84
2019-03-17T18:53:28.037Z,61.87
2019-03-17T18:55:57.045Z,61.83
2019-03-17T18:58:25.929Z,61.80
2019-03-17T19:00:55.063Z,61.77
2019-03-17T19:03:24.087Z,61.74
2019-03-17T19:05:53.193Z,61.83
2019-03-17T19:08:22.397Z,61.83
2019-03-17T19:10:51.434Z,61.83
2019-03-17T19:13:20.464Z,61.73
2019-03-17T19:15:49.526Z,61.76
2019-03-17T19:18:18.509Z,61.72
2019-03-17T19:20:47.500Z,61.63
2019-03-17T19:23:16.490Z,61.62
2019-03-17T19:25:45.494Z,61.59
2019-03-17T19:28:14.623Z,61.54
2019-03-17T19:30:43.454Z,61.50
2019-03-17T19:33:12.615Z,61.49
2019-03-17T19:35:41.619Z,61.50
2019-03-17T19:38:10.500Z,61.42
2019-03-17T19:40:39.293Z,61.35
2019-03-17T19:43:08.391Z,61.43
2019-03-17T19:45:37.310Z,61.48
2019-03-17T19:48:06.332Z,61.46
2019-03-17T19:50:35.357Z,61.54
2019-03-17T19:53:04.653Z,61.46
2019-03-17T19:55:33.691Z,61.40
2019-03-17T19:58:02.686Z,61.46
2019-03-17T20:00:31.751Z,61.47
2019-03-17T20:03:00.741Z,61.45
2019-03-17T20:05:29.778Z,61.42
2019-03-17T20:07:58.649Z,61.38
2019-03-17T20:10:27.625Z,61.38
2019-03-17T20:12:56.762Z,61.49
2019-03-17T20:15:44.793Z,61.51
2019-03-17T20:18:13.741Z,61.38
2019-03-17T20:20:42.588Z,61.41
2019-03-17T20:23:11.778Z,61.46
2019-03-17T20:25:40.886Z,61.38
2019-03-17T20:28:09.992Z,61.41
2019-03-17T20:30:39.139Z,61.39
2019-03-17T20:33:07.979Z,61.33
2019-03-17T20:35:36.910Z,61.32
2019-03-17T20:38:05.968Z,61.28
2019-03-17T20:40:34.908Z,61.26
2019-03-17T20:43:03.860Z,61.23
2019-03-17T20:45:32.984Z,61.17
2019-03-17T20:48:02.110Z,61.08
2019-03-17T20:50:31.084Z,61.05
2019-03-17T20:53:00.077Z,61.01
2019-03-17T20:55:28.955Z,61.04
2019-03-17T20:57:57.840Z,61.09
2019-03-17T21:00:26.819Z,61.07
2019-03-17T21:02:55.752Z,61.08
2019-03-17T21:05:24.764Z,61.05
2019-03-17T21:07:53.880Z,61.10
2019-03-17T21:10:23.066Z,61.09
2019-03-17T21:12:52.207Z,61.05
2019-03-17T21:15:21.273Z,61.05
2019-03-17T21:17:50.250Z,60.97
2019-03-17T21:20:19.201Z,60.95
2019-03-17T21:22:48.262Z,60.99
2019-03-17T21:25:17.254Z,60.95
2019-03-17T21:27:46.090Z,60.90
2019-03-17T21:30:17.280Z,60.90
2019-03-17T21:32:46.266Z,60.95
2019-03-17T21:35:15.236Z,60.92
2019-03-17T21:37:44.243Z,60.90
2019-03-17T21:40:32.312Z,60.90
2019-03-17T21:43:01.303Z,60.88
2019-03-17T21:45:30.324Z,60.85
2019-03-17T21:47:59.341Z,60.83
2019-03-17T21:50:28.349Z,60.80
2019-03-17T21:52:57.583Z,60.79
2019-03-17T21:55:26.451Z,60.76
2019-03-17T21:57:55.370Z,60.72
2019-03-17T22:00:24.372Z,60.72
2019-03-17T22:02:54.985Z,60.66
2019-03-17T22:05:23.915Z,60.66
2019-03-17T22:08:13.460Z,60.65
2019-03-17T22:10:42.558Z,60.64
2019-03-17T22:13:11.527Z,60.58
2019-03-17T22:15:40.463Z,60.67
2019-03-17T22:18:09.487Z,60.57
2019-03-17T22:20:38.554Z,60.65
2019-03-17T22:25:55.431Z,60.52
2019-03-17T22:28:24.230Z,60.55
2019-03-17T22:30:53.317Z,60.46
2019-03-17T22:33:22.617Z,60.44
2019-03-17T22:35:51.584Z,60.45
2019-03-17T22:38:20.578Z,60.45
2019-03-17T22:40:49.621Z,60.41
2019-03-17T22:43:37.745Z,60.42
2019-03-17T22:46:06.731Z,60.45
2019-03-17T22:48:35.579Z,60.34
2019-03-17T22:51:04.365Z,60.36
2019-03-17T22:53:33.346Z,60.36
2019-03-17T22:56:02.240Z,60.35
2019-03-17T22:58:31.267Z,60.32
2019-03-17T23:01:00.252Z,60.37
2019-03-17T23:03:29.268Z,60.22
2019-03-17T23:05:58.166Z,60.14
2019-03-17T23:08:27.011Z,60.18
2019-03-17T23:10:55.936Z,60.15
2019-03-17T23:13:24.816Z,60.12
2019-03-17T23:15:53.823Z,60.20
2019-03-17T23:18:22.737Z,60.12
2019-03-17T23:20:51.523Z,60.01
2019-03-17T23:23:20.541Z,60.08
2019-03-17T23:25:49.552Z,60.15
2019-03-17T23:28:18.565Z,60.07
2019-03-17T23:30:47.464Z,60.11
2019-03-17T23:33:16.554Z,60.09
2019-03-17T23:35:45.577Z,60.08
2019-03-17T23:38:14.400Z,60.06
2019-03-17T23:40:43.405Z,60.07
2019-03-17T23:43:12.347Z,60.10
2019-03-17T23:45:41.374Z,60.09
2019-03-17T23:48:31.005Z,60.09
2019-03-17T23:50:59.932Z,60.12
2019-03-17T23:53:28.765Z,60.03
2019-03-17T23:55:57.704Z,60.11
2019-03-17T23:58:26.713Z,60.05
